Kramer, North Dakota
Current Conditions -  °F | °C
As of 5:58 PM on Wednesday 22 Oct 2014 (Local Time) from KMIB Reporting Station
Overcast Overcast  
Wind Chill: 58°   Ceiling: 5500
Heat Index: 58°   Visibility: 10mi
Dew Point: 44°   Wind: 18mph
Humidity: 59%   Direction: 280°W
Pressure: 29.78"   Gusts: NA
Location:  48.69°N, 100.71°W
Report Text: KMIB 222258Z AUTO 28016KT 10SM OVC055 15/07 A2978 RMK AO2 SLP092 T01470068 $
Loading
Personal Weather Stations






























Interactive Weather Map
Tropical Storm Tracking
New forecast layout! Learn more

10-Day Weather Forecast

Advertisements
Track Severe Weather on mobile